This is the latest recevied weather packets stored in our database for station/object KF6FPU-15. If no packets are shown the sender has not sent any weather packets the latest 10 day(s).
| Time | Temp. | Humidity | Pressure | Rain* | Wind** | Luminosity | Snow |
|---|---|---|---|---|---|---|---|
| 1778288504 | 28.89° C | 19% | 1013.8 hPa | - | - | - | - |
| 1778287904 | 28.89° C | 19% | 1013.9 hPa | - | - | - | - |
| 1778287304 | 29.44° C | 19% | 1013.9 hPa | - | - | - | - |
| 1778286104 | 28.89° C | 19% | 1014.1 hPa | - | - | - | - |
| 1778285504 | 29.44° C | 19% | 1014.1 hPa | - | - | - | - |
| 1778284904 | 30° C | 19% | 1014.1 hPa | - | - | - | - |
| 1778284304 | 31.11° C | 19% | 1014.2 hPa | - | - | - | - |
| 1778283704 | 32.22° C | 18% | 1014.3 hPa | - | - | - | - |
| 1778283104 | 33.33° C | 18% | 1014.3 hPa | - | - | - | - |
| 1778282504 | 35° C | 18% | 1014.4 hPa | - | - | - | - |
| 1778281904 | 39.44° C | 17% | 1014.4 hPa | - | - | - | - |
| 1778281304 | 40.56° C | 17% | 1014.5 hPa | - | - | - | - |
| 1778280704 | 40.56° C | 17% | 1014.7 hPa | - | - | - | - |
| 1778279504 | 38.89° C | 17% | 1015 hPa | - | - | - | - |
| 1778278904 | 39.44° C | 17% | 1015.1 hPa | - | - | - | - |
| 1778278304 | 39.44° C | 17% | 1015.3 hPa | - | - | - | - |
| 1778277704 | 39.44° C | 17% | 1015.4 hPa | - | - | - | - |
| 1778277104 | 41.67° C | 17% | 1015.5 hPa | - | - | - | - |
| 1778276504 | 41.67° C | 17% | 1015.7 hPa | - | - | - | - |
| 1778275904 | 40.56° C | 17% | 1015.8 hPa | - | - | - | - |
| 1778275304 | 40.56° C | 17% | 1015.9 hPa | - | - | - | - |
| 1778274704 | 40.56° C | 17% | 1016.1 hPa | - | - | - | - |
| 1778274104 | 40.56° C | 17% | 1016.2 hPa | - | - | - | - |
| 1778272904 | 39.44° C | 17% | 1016.4 hPa | - | - | - | - |
| 1778272304 | 39.44° C | 17% | 1016.4 hPa | - | - | - | - |
* Rain since midnight (hover to see other rain measurements)
** Current wind speed in m/s (hover to see current wind gust speed)